• Join FlightAware (Why Join?)
  • Login
  • US Flag 
02:24PM EDT


 

Airport Tracker/Info


-or-


 

Live Flight TrackerFlight Track Log ✈ CPT8773 ✈ 02-Dec-2013 ✈ KCPR - KCOD

Flight Track Log - Related Links

Times and Time Zones

All times are in EST time to prevent confusion due to time zone crossing. See the CPT8773 flight status page for this flight to view local times or setup timezone preferences in your user account.

Time Position Orientation Groundspeed Altitude Reporting Facility
EST Latitude Longitude Course Direction KTS MPH feet Rate Location/Type
08:55AM 42.9625 -106.5017 305° West 130 150 7,600  Level Denver Center
08:56AM 42.9975 -106.5058 355° North 132 152 8,600 780 Climbing Denver Center
08:57AM 43.0347 -106.5103 355° North 127 146 9,300 660 Climbing Denver Center
08:58AM 43.0636 -106.5128 356° North 120 138 10,000 540 Climbing Denver Center
08:59AM 43.1337 -106.8092 307° West  Level Estimated
08:59AM 43.0925 -106.5178 353° North 114 131 10,500  Level Denver Center
09:00AM 43.1562 -106.8438 305° West  Level Estimated
09:00AM 43.1264 -106.5208 356° North 111 128 11,200  Level Denver Center
09:01AM 43.1494 -106.5261 351° North 100 115 11,700 360 Climbing Denver Center
09:02AM 43.1769 -106.5300 354° North 102 117 12,000 120 Climbing Denver Center
09:03AM 43.2133 -106.5431 345° North 120 138 12,000  Level Denver Center
09:04AM 43.2439 -106.5622 335° Northwest 126 145 12,000  Level Denver Center
09:05AM 43.2611 -106.5986 303° West 123 142 12,000  Level Denver Center
09:06AM 43.2817 -106.6422 303° West 122 140 12,000  Level Denver Center
09:07AM 43.2981 -106.6808 300° West 120 138 12,100  Climbing Salt Lake Center
09:08AM 43.3192 -106.7158 310° West 123 142 12,000  Descending Salt Lake Center
09:09AM 43.3414 -106.7575 306° West 122 140 12,100  Climbing Salt Lake Center
09:10AM 43.3597 -106.7906 307° West 117 135 12,100  Level Salt Lake Center
09:11AM 43.3767 -106.8236 305° West 113 130 12,100  Level Salt Lake Center
09:12AM 43.3983 -106.8636 307° West 115 132 12,100  Level Salt Lake Center
09:13AM 43.4167 -106.8981 306° West 117 135 12,100  Level Salt Lake Center
09:14AM 43.4375 -106.9356 307° West 115 132 12,100 -60 Level Salt Lake Center
09:15AM 43.4564 -106.9733 305° West 118 136 12,000 -60 Descending Salt Lake Center
09:16AM 43.4736 -107.0092 304° West 115 132 12,000  Level Salt Lake Center
09:17AM 43.4906 -107.0411 306° West 107 123 12,000  Level Salt Lake Center
09:18AM 43.5072 -107.0736 305° West 105 121 12,000  Level Salt Lake Center
09:19AM 43.5233 -107.1053 305° West 103 119 12,000  Level Salt Lake Center
09:20AM 43.5403 -107.1353 308° West 100 115 12,000  Level Salt Lake Center
09:21AM 43.5586 -107.1678 308° West 105 121 12,000  Level Salt Lake Center
09:22AM 43.5783 -107.2014 309° West 111 128 12,000  Level Salt Lake Center
09:23AM 43.5967 -107.2372 305° West 112 129 12,100  Climbing Salt Lake Center
09:24AM 43.6178 -107.2747 308° West 117 135 12,000 -60 Descending Salt Lake Center
09:25AM 43.6408 -107.3131 310° West 123 142 12,000  Level Salt Lake Center
09:26AM 43.6608 -107.3536 304° West 126 145 12,000  Level Salt Lake Center
09:27AM 43.6842 -107.4047 302° West 128 147 12,000  Level Salt Lake Center
09:28AM 43.7042 -107.4433 306° West 127 146 12,000  Level Salt Lake Center
09:29AM 43.7247 -107.4831 306° West 127 146 12,000  Level Salt Lake Center
09:30AM 43.7464 -107.5211 308° West 127 146 12,000  Level Salt Lake Center
09:31AM 43.7658 -107.5581 306° West 124 143 12,000  Level Salt Lake Center
09:32AM 43.7844 -107.5950 305° West 121 139 12,000  Level Salt Lake Center
09:33AM 43.8039 -107.6308 307° West 119 137 12,000  Level Salt Lake Center
09:34AM 43.8231 -107.6678 306° West 118 136 12,000  Level Salt Lake Center
09:35AM 43.8422 -107.7017 308° West 116 133 12,000  Level Salt Lake Center
09:36AM 43.8619 -107.7389 306° West 117 135 12,000  Level Salt Lake Center
09:37AM 43.8822 -107.7761 307° West 119 137 12,000  Level Salt Lake Center
09:38AM 43.9008 -107.8122 306° West 118 136 12,000  Level Salt Lake Center
09:39AM 43.9239 -107.8586 305° West 119 137 12,000  Level Salt Lake Center
09:40AM 43.9433 -107.8958 306° West 120 138 12,000  Level Salt Lake Center
09:41AM 43.9619 -107.9306 307° West 117 135 12,000  Level Salt Lake Center
09:42AM 43.9803 -107.9667 305° West 115 132 12,000  Level Salt Lake Center
09:43AM 43.9981 -108.0031 304° West 115 132 12,000 -120 Level Salt Lake Center
09:44AM 44.0172 -108.0394 306° West 116 133 11,800 -300 Descending Salt Lake Center
09:45AM 44.0381 -108.0772 308° West 119 137 11,400 -480 Descending Salt Lake Center
09:46AM 44.0592 -108.1167 307° West 122 140 10,900 -420 Descending Salt Lake Center
09:47AM 44.0800 -108.1589 304° West 127 146 10,600 -300 Descending Salt Lake Center
09:49AM 44.0997 -108.1981 305° West 127 146 10,300 -300 Descending Salt Lake Center
09:50AM 44.1194 -108.2364 306° West 124 143 10,100 -180 Descending Salt Lake Center
09:51AM 44.1431 -108.2814 306° West 122 140 10,000  Descending Salt Lake Center
09:52AM 44.1608 -108.3156 306° West 118 136 10,100  Climbing Salt Lake Center
09:53AM 44.1783 -108.3511 304° West 114 131 10,100 -60 Level Salt Lake Center
09:54AM 44.1969 -108.3886 305° West 115 132 10,000  Descending Salt Lake Center
09:55AM 44.2156 -108.4250 306° West 115 132 10,100  Climbing Salt Lake Center
09:56AM 44.2347 -108.4614 306° West 116 133 10,100  Level Salt Lake Center
09:57AM 44.2550 -108.4994 307° West 118 136 10,100  Level Salt Lake Center
09:58AM 44.2747 -108.5397 304° West 121 139 10,100  Level Salt Lake Center
09:59AM 44.2942 -108.5775 306° West 122 140 10,100 -60 Level Salt Lake Center
10:00AM 44.3131 -108.6156 305° West 121 139 10,000 -120 Descending Salt Lake Center